Time;durP1;ratioP1;P1;durP2;ratioP2;P2;SDS_P1;SDS_P2;PMS_P1;PMS_P2;Temp;Humidity;BMP_temperature;BMP_pressure;BME280_temperature;BME280_humidity;BME280_pressure;Samples;Min_cycle;Max_cycle;Signal;HPM_P1;HPM_P2
2022/10/28 00:02:12;;;;;;;59.97;33.40;;;13.10;1.00;;;;;;4937783;29;20199;-89
2022/10/28 00:04:39;;;;;;;58.00;32.93;;;13.00;1.00;;;;;;4937777;29;20199;-89
2022/10/28 00:07:06;;;;;;;49.17;30.27;;;13.00;1.00;;;;;;4937894;28;20230;-89
2022/10/28 00:09:34;;;;;;;54.80;32.10;;;13.10;1.00;;;;;;4937638;29;20203;-92
2022/10/28 00:12:01;;;;;;;57.03;32.80;;;13.00;1.00;;;;;;4937680;29;20288;-88
2022/10/28 00:14:29;;;;;;;59.77;33.47;;;13.10;1.00;;;;;;4937444;29;20683;-89
2022/10/28 00:16:56;;;;;;;59.63;34.30;;;13.10;1.00;;;;;;4937798;28;20295;-90
2022/10/28 00:19:23;;;;;;;62.17;33.97;;;13.10;1.00;;;;;;4937822;28;20212;-89
2022/10/28 00:21:50;;;;;;;59.17;32.47;;;13.10;1.00;;;;;;4937267;29;20654;-89
2022/10/28 00:24:17;;;;;;;64.80;34.37;;;13.10;1.00;;;;;;4937502;28;20199;-89
2022/10/28 00:26:45;;;;;;;53.73;31.87;;;13.10;1.00;;;;;;4937663;28;20289;-90
2022/10/28 00:29:15;;;;;;;58.03;33.53;;;13.10;1.00;;;;;;4937262;29;20282;-90
2022/10/28 00:31:42;;;;;;;56.73;32.90;;;13.10;1.00;;;;;;4937391;28;20210;-89
2022/10/28 00:34:12;;;;;;;64.80;34.63;;;13.20;1.00;;;;;;4936907;28;20228;-92
2022/10/28 00:36:41;;;;;;;64.33;34.57;;;13.20;1.00;;;;;;4937306;29;20207;-89
2022/10/28 00:39:15;;;;;;;59.50;33.40;;;13.20;1.00;;;;;;4936898;29;20216;-89
2022/10/28 00:41:46;;;;;;;56.77;33.27;;;13.20;1.00;;;;;;4937223;29;20207;-89
2022/10/28 00:44:51;;;;;;;60.23;34.03;;;13.20;1.00;;;;;;4936908;29;20570;-93
2022/10/28 00:47:33;;;;;;;58.57;34.03;;;13.20;1.00;;;;;;4932292;29;20329;-92
2022/10/28 00:50:07;;;;;;;62.87;35.00;;;13.20;1.00;;;;;;4936934;29;20205;-89
2022/10/28 00:52:34;;;;;;;62.83;33.47;;;13.20;1.00;;;;;;4937068;28;20238;-89
2022/10/28 00:55:03;;;;;;;64.07;34.40;;;13.20;1.00;;;;;;4936357;29;20196;-90
2022/10/28 00:57:36;;;;;;;61.53;34.27;;;13.20;1.00;;;;;;4936765;29;20199;-89
2022/10/28 01:00:06;;;;;;;55.60;34.77;;;13.30;1.00;;;;;;4936870;29;20268;-89
2022/10/28 01:02:37;;;;;;;64.07;34.93;;;13.30;1.00;;;;;;4936889;29;20268;-91
2022/10/28 01:05:05;;;;;;;57.17;33.87;;;13.30;1.00;;;;;;4936563;29;20187;-89
2022/10/28 01:07:32;;;;;;;58.90;33.40;;;13.30;1.00;;;;;;4936608;29;20264;-89
2022/10/28 01:09:59;;;;;;;60.77;33.60;;;13.40;1.00;;;;;;4936687;29;20655;-89
2022/10/28 01:12:40;;;;;;;58.47;34.00;;;13.40;1.00;;;;;;4936755;29;20208;-89
2022/10/28 01:15:13;;;;;;;58.33;33.50;;;13.40;1.00;;;;;;4936418;29;20193;-91
2022/10/28 01:17:53;;;;;;;55.30;32.93;;;13.40;1.00;;;;;;4936442;29;20188;-89
2022/10/28 01:20:58;;;;;;;60.47;34.30;;;13.40;1.00;;;;;;4936014;29;20190;-92
2022/10/28 01:23:33;;;;;;;58.63;34.87;;;13.40;1.00;;;;;;4936613;29;20196;-90
2022/10/28 01:26:28;;;;;;;60.27;34.60;;;13.40;1.00;;;;;;4935838;29;20195;-88
2022/10/28 01:29:30;;;;;;;52.63;32.20;;;13.50;1.00;;;;;;4936751;28;20603;-91
2022/10/28 01:32:03;;;;;;;54.67;33.67;;;13.50;1.00;;;;;;4936481;29;20213;-89
2022/10/28 01:34:33;;;;;;;58.20;33.87;;;13.50;1.00;;;;;;4935976;29;20250;-89
2022/10/28 01:37:10;;;;;;;64.30;35.40;;;13.50;1.00;;;;;;4936116;29;20178;-90
2022/10/28 01:39:45;;;;;;;63.67;35.43;;;13.60;1.00;;;;;;4935907;29;20203;-91
2022/10/28 01:42:21;;;;;;;59.90;34.27;;;13.60;1.00;;;;;;4935707;29;20180;-89
2022/10/28 01:44:53;;;;;;;64.87;35.33;;;13.60;1.00;;;;;;4936109;29;20195;-89
2022/10/28 01:47:26;;;;;;;58.57;34.87;;;13.60;1.00;;;;;;4935577;29;20338;-90
2022/10/28 01:49:56;;;;;;;65.63;36.20;;;13.60;1.00;;;;;;4935324;29;20222;-89
2022/10/28 01:52:26;;;;;;;58.57;35.87;;;13.60;1.00;;;;;;4935615;29;20280;-89
2022/10/28 01:55:01;;;;;;;61.63;34.73;;;13.60;1.00;;;;;;4936054;29;20267;-90
2022/10/28 01:57:31;;;;;;;66.40;35.63;;;13.60;1.00;;;;;;4936257;29;20201;-93
2022/10/28 01:59:59;;;;;;;64.60;35.67;;;13.60;1.00;;;;;;4935993;29;20656;-89
2022/10/28 02:02:32;;;;;;;58.67;34.73;;;13.50;1.00;;;;;;4936077;29;20213;-90
2022/10/28 02:05:27;;;;;;;62.00;35.77;;;13.50;1.00;;;;;;4936079;29;20251;-90
2022/10/28 02:07:59;;;;;;;58.53;35.77;;;13.40;1.00;;;;;;4935564;29;20619;-90
2022/10/28 02:10:35;;;;;;;66.87;35.60;;;13.40;1.00;;;;;;4936095;28;20654;-90
2022/10/28 02:13:07;;;;;;;63.40;36.20;;;13.40;1.00;;;;;;4935346;29;20307;-89
2022/10/28 02:15:44;;;;;;;66.50;34.97;;;13.40;1.00;;;;;;4935919;29;20215;-88
2022/10/28 02:18:26;;;;;;;65.60;35.53;;;13.30;1.00;;;;;;4935600;29;20197;-89
2022/10/28 02:20:59;;;;;;;64.77;36.47;;;13.30;1.00;;;;;;4935434;29;20196;-90
2022/10/28 02:23:36;;;;;;;60.87;34.80;;;13.20;1.00;;;;;;4935658;29;20557;-89
2022/10/28 02:26:12;;;;;;;77.77;37.33;;;13.20;1.00;;;;;;4935750;29;20196;-92
2022/10/28 02:28:42;;;;;;;74.23;37.67;;;13.20;1.00;;;;;;4934852;29;20184;-92
2022/10/28 02:31:23;;;;;;;72.47;36.60;;;13.20;1.00;;;;;;4935477;29;20203;-89
2022/10/28 02:33:56;;;;;;;68.30;37.37;;;13.20;1.00;;;;;;4934314;29;20610;-90
2022/10/28 02:36:25;;;;;;;71.00;36.67;;;13.20;1.00;;;;;;4935276;28;20272;-93
2022/10/28 02:38:55;;;;;;;71.67;38.87;;;13.20;1.00;;;;;;4935478;29;20205;-90
2022/10/28 02:41:27;;;;;;;81.20;39.53;;;13.10;1.00;;;;;;4935434;29;20635;-89
2022/10/28 02:43:57;;;;;;;79.63;39.30;;;13.10;1.00;;;;;;4935537;29;20292;-89
2022/10/28 02:46:27;;;;;;;82.23;41.93;;;13.00;1.00;;;;;;4935506;29;20272;-89
2022/10/28 02:49:00;;;;;;;84.30;43.27;;;13.00;1.00;;;;;;4935154;29;20203;-89
2022/10/28 02:51:33;;;;;;;77.53;42.30;;;12.90;1.00;;;;;;4935133;29;20252;-92
2022/10/28 02:54:04;;;;;;;85.40;40.53;;;12.90;1.00;;;;;;4935339;29;20682;-89
2022/10/28 02:56:37;;;;;;;74.83;38.47;;;12.80;1.00;;;;;;4935359;29;20558;-90
2022/10/28 02:59:08;;;;;;;76.83;39.53;;;12.80;1.00;;;;;;4935608;29;20643;-92
2022/10/28 03:01:35;;;;;;;72.23;38.97;;;12.80;1.00;;;;;;4936226;29;20207;-91
2022/10/28 03:04:04;;;;;;;78.07;39.17;;;12.70;1.00;;;;;;4939043;29;20206;-90
2022/10/28 03:06:31;;;;;;;75.73;38.57;;;12.70;1.00;;;;;;4939302;28;20241;-91
2022/10/28 03:08:58;;;;;;;74.73;38.57;;;12.70;1.00;;;;;;4938837;28;20204;-90
2022/10/28 03:11:25;;;;;;;89.03;39.90;;;12.70;1.00;;;;;;4938732;29;20201;-90
2022/10/28 03:13:52;;;;;;;82.53;39.50;;;12.70;1.00;;;;;;4938496;29;20231;-88
2022/10/28 03:16:19;;;;;;;82.17;38.43;;;12.70;1.00;;;;;;4938688;28;20274;-89
2022/10/28 03:18:46;;;;;;;77.70;38.10;;;12.80;1.00;;;;;;4938157;29;20206;-89
2022/10/28 03:21:15;;;;;;;81.07;38.70;;;12.70;1.00;;;;;;4938729;29;20213;-89
2022/10/28 03:23:42;;;;;;;75.90;38.03;;;12.70;1.00;;;;;;4938279;28;20200;-89
2022/10/28 03:26:09;;;;;;;86.17;39.27;;;12.70;1.00;;;;;;4937961;29;20191;-89
2022/10/28 03:28:36;;;;;;;77.27;38.30;;;12.70;1.00;;;;;;4938435;29;20224;-91
2022/10/28 03:31:03;;;;;;;76.37;40.97;;;12.70;1.00;;;;;;4938240;28;20251;-90
2022/10/28 03:33:30;;;;;;;82.93;42.13;;;12.70;1.00;;;;;;4938532;29;20228;-88
2022/10/28 03:35:57;;;;;;;73.93;39.50;;;12.70;1.00;;;;;;4938527;29;20231;-90
2022/10/28 03:38:26;;;;;;;74.17;37.80;;;12.60;1.00;;;;;;4937945;29;20199;-89
2022/10/28 03:40:53;;;;;;;84.33;40.47;;;12.60;1.00;;;;;;4938201;28;20630;-89
2022/10/28 03:43:20;;;;;;;79.50;39.07;;;12.60;1.00;;;;;;4937876;29;20289;-89
2022/10/28 03:45:48;;;;;;;81.80;39.63;;;12.50;1.00;;;;;;4937765;29;20666;-89
2022/10/28 03:48:15;;;;;;;80.57;40.40;;;12.50;1.00;;;;;;4938075;29;20204;-89
2022/10/28 03:50:42;;;;;;;78.17;38.30;;;12.50;1.00;;;;;;4938220;29;20198;-93
2022/10/28 03:53:09;;;;;;;83.43;39.63;;;12.50;1.00;;;;;;4937772;29;20594;-89
2022/10/28 03:55:37;;;;;;;83.97;42.00;;;12.50;1.00;;;;;;4938148;28;20554;-91
2022/10/28 03:58:05;;;;;;;90.53;43.80;;;12.50;1.00;;;;;;4938000;28;20609;-89
2022/10/28 04:00:32;;;;;;;105.60;49.97;;;12.40;1.00;;;;;;4937252;29;20200;-91
2022/10/28 04:02:59;;;;;;;83.63;42.77;;;12.40;1.00;;;;;;4937886;29;20201;-89
2022/10/28 04:05:26;;;;;;;72.20;37.97;;;12.40;1.00;;;;;;4937592;29;20194;-88
2022/10/28 04:07:53;;;;;;;88.50;39.97;;;12.30;1.00;;;;;;4937598;29;20254;-90
2022/10/28 04:10:20;;;;;;;78.73;38.40;;;12.30;1.00;;;;;;4937390;29;20285;-88
2022/10/28 04:12:49;;;;;;;74.07;36.93;;;12.30;1.00;;;;;;4937158;28;20624;-88
2022/10/28 04:15:16;;;;;;;83.70;38.07;;;12.30;1.00;;;;;;4937649;29;20213;-89
2022/10/28 04:17:43;;;;;;;76.00;37.00;;;12.30;1.00;;;;;;4937318;29;20202;-89
2022/10/28 04:20:11;;;;;;;90.20;38.87;;;12.20;1.00;;;;;;4937618;29;20202;-89
2022/10/28 04:22:38;;;;;;;81.93;38.07;;;12.20;1.00;;;;;;4937635;29;20794;-91
2022/10/28 04:25:05;;;;;;;75.07;37.00;;;12.20;1.00;;;;;;4937051;29;20554;-89
2022/10/28 04:27:32;;;;;;;80.03;37.97;;;12.20;1.00;;;;;;4937139;29;20595;-88
2022/10/28 04:30:01;;;;;;;77.97;38.40;;;12.20;1.00;;;;;;4937510;28;20210;-88
2022/10/28 04:32:28;;;;;;;74.60;38.80;;;12.20;1.00;;;;;;4937228;28;20565;-89
2022/10/28 04:34:55;;;;;;;77.93;37.90;;;12.20;1.00;;;;;;4936791;28;20229;-89
2022/10/28 04:37:22;;;;;;;80.20;37.87;;;12.20;1.00;;;;;;4936884;29;20289;-91
2022/10/28 04:39:49;;;;;;;70.63;37.03;;;12.20;1.00;;;;;;4936148;29;20197;-88
2022/10/28 04:42:16;;;;;;;78.67;38.43;;;12.20;1.00;;;;;;4936703;29;20203;-89
2022/10/28 04:44:43;;;;;;;72.60;37.20;;;12.10;1.00;;;;;;4936320;29;20198;-88
2022/10/28 04:47:11;;;;;;;76.30;37.77;;;12.10;1.00;;;;;;4936490;29;20596;-92
2022/10/28 04:49:39;;;;;;;80.17;38.43;;;12.10;1.00;;;;;;4937136;29;20254;-88
2022/10/28 04:52:06;;;;;;;80.97;39.63;;;12.20;1.00;;;;;;4936984;29;20193;-88
2022/10/28 04:54:33;;;;;;;71.50;36.73;;;12.10;1.00;;;;;;4936512;28;20580;-89
2022/10/28 04:57:00;;;;;;;73.37;36.87;;;12.10;1.00;;;;;;4936661;28;20210;-89
2022/10/28 04:59:26;;;;;;;84.40;39.70;;;12.10;1.00;;;;;;4936433;29;20533;-89
2022/10/28 05:01:54;;;;;;;84.40;38.87;;;12.10;1.00;;;;;;4936076;29;20195;-90
2022/10/28 05:04:22;;;;;;;79.20;38.87;;;12.10;1.00;;;;;;4936453;29;20269;-88
2022/10/28 05:06:49;;;;;;;84.20;40.67;;;12.10;1.00;;;;;;4937922;29;20201;-89
2022/10/28 05:09:16;;;;;;;89.47;40.47;;;12.10;1.00;;;;;;4936572;29;20545;-87
2022/10/28 05:11:43;;;;;;;83.60;40.17;;;12.10;1.00;;;;;;4936726;28;20539;-89
2022/10/28 05:14:10;;;;;;;89.10;41.33;;;12.10;1.00;;;;;;4936065;29;20598;-84
2022/10/28 05:16:37;;;;;;;86.93;40.73;;;12.10;1.00;;;;;;4936330;29;20248;-87
2022/10/28 05:19:04;;;;;;;85.07;42.57;;;12.10;1.00;;;;;;4936130;29;20201;-86
2022/10/28 05:21:32;;;;;;;85.37;41.07;;;12.00;1.00;;;;;;4935655;29;20262;-86
2022/10/28 05:24:00;;;;;;;74.43;39.47;;;12.00;1.00;;;;;;4935717;29;20542;-88
2022/10/28 05:26:27;;;;;;;78.70;39.17;;;12.00;1.00;;;;;;4935595;29;20289;-88
2022/10/28 05:28:54;;;;;;;82.47;39.63;;;12.00;1.00;;;;;;4935691;29;20250;-86
2022/10/28 05:31:21;;;;;;;79.90;39.00;;;12.00;1.00;;;;;;4935920;29;20202;-87
2022/10/28 05:33:48;;;;;;;87.23;41.90;;;12.00;1.00;;;;;;4935949;29;20232;-86
2022/10/28 05:36:15;;;;;;;97.50;42.67;;;12.00;1.00;;;;;;4935925;29;20689;-87
2022/10/28 05:38:44;;;;;;;84.50;41.07;;;12.00;1.00;;;;;;4935837;29;20201;-85
2022/10/28 05:41:11;;;;;;;75.10;38.23;;;12.00;1.00;;;;;;4936116;29;20545;-88
2022/10/28 05:43:38;;;;;;;85.87;40.03;;;12.00;1.00;;;;;;4935890;29;20190;-87
2022/10/28 05:46:05;;;;;;;80.70;37.27;;;11.90;1.00;;;;;;4935809;28;20209;-88
2022/10/28 05:48:32;;;;;;;80.13;37.80;;;11.90;1.00;;;;;;4935360;29;20206;-87
2022/10/28 05:50:59;;;;;;;83.07;38.97;;;11.90;1.00;;;;;;4935611;29;20603;-91
2022/10/28 05:53:26;;;;;;;90.40;41.20;;;11.90;1.00;;;;;;4935683;29;20271;-88
2022/10/28 05:55:54;;;;;;;80.37;39.20;;;11.90;1.00;;;;;;4935614;29;20217;-90
2022/10/28 05:58:21;;;;;;;92.23;40.77;;;11.90;1.00;;;;;;4935594;29;20256;-88
2022/10/28 06:00:48;;;;;;;113.83;51.83;;;11.90;1.00;;;;;;4935609;29;20204;-87
2022/10/28 06:03:15;;;;;;;78.83;37.87;;;11.90;1.00;;;;;;4935197;29;20204;-89
2022/10/28 06:05:44;;;;;;;90.13;39.33;;;11.90;1.00;;;;;;4935687;29;20256;-87
2022/10/28 06:08:12;;;;;;;101.83;41.97;;;11.90;1.00;;;;;;4935366;29;20205;-87
2022/10/28 06:10:39;;;;;;;86.53;38.30;;;11.90;1.00;;;;;;4935734;29;20239;-87
2022/10/28 06:13:08;;;;;;;94.97;39.10;;;11.90;1.00;;;;;;4935066;29;20612;-87
2022/10/28 06:15:35;;;;;;;92.60;38.67;;;11.90;1.00;;;;;;4935077;28;20238;-88
2022/10/28 06:18:02;;;;;;;121.17;51.13;;;11.90;1.00;;;;;;4935184;29;20197;-91
2022/10/28 06:20:29;;;;;;;102.83;42.40;;;11.90;1.00;;;;;;4935000;29;20201;-87
2022/10/28 06:22:57;;;;;;;70.50;37.20;;;11.90;1.00;;;;;;4935275;29;20193;-89
2022/10/28 06:25:26;;;;;;;78.77;42.93;;;11.90;1.00;;;;;;4934977;29;20207;-87
2022/10/28 06:28:06;;;;;;;93.40;43.40;;;11.90;1.00;;;;;;4936843;29;20201;-89
2022/10/28 06:30:35;;;;;;;83.03;39.33;;;12.00;1.00;;;;;;4936116;29;20205;-90
2022/10/28 06:33:02;;;;;;;94.50;39.10;;;12.00;1.00;;;;;;4934864;29;20209;-93
2022/10/28 06:35:29;;;;;;;83.37;39.17;;;12.00;1.00;;;;;;4935046;28;20301;-89
2022/10/28 06:37:57;;;;;;;217.33;108.77;;;12.00;1.00;;;;;;4938652;28;20606;-87
2022/10/28 06:40:24;;;;;;;152.07;71.17;;;12.10;1.00;;;;;;4938900;29;20201;-88
2022/10/28 06:42:57;;;;;;;107.97;50.77;;;12.10;1.00;;;;;;4938780;29;20204;-88
2022/10/28 06:45:24;;;;;;;97.07;41.53;;;12.10;1.00;;;;;;4938901;29;20185;-88
2022/10/28 06:47:56;;;;;;;102.90;41.47;;;12.20;1.00;;;;;;4938504;29;20213;-88
2022/10/28 06:50:23;;;;;;;81.63;37.00;;;12.20;1.00;;;;;;4938947;29;20198;-89
2022/10/28 06:52:51;;;;;;;82.30;39.73;;;12.30;1.00;;;;;;4938734;29;20621;-89
2022/10/28 06:55:18;;;;;;;65.93;35.80;;;12.30;1.00;;;;;;4938940;29;20226;-88
2022/10/28 06:57:45;;;;;;;60.63;35.50;;;12.30;1.00;;;;;;4938922;29;20229;-87
2022/10/28 07:00:13;;;;;;;62.73;34.80;;;12.40;1.00;;;;;;4938456;29;20205;-88
2022/10/28 07:02:41;;;;;;;68.97;39.67;;;12.40;1.00;;;;;;4938602;29;20213;-88
2022/10/28 07:05:09;;;;;;;59.67;33.97;;;12.50;1.00;;;;;;4938308;29;20661;-90
2022/10/28 07:07:37;;;;;;;65.03;40.20;;;12.60;1.00;;;;;;4938504;29;20206;-87
2022/10/28 07:10:04;;;;;;;51.63;31.97;;;12.70;1.00;;;;;;4941646;29;20201;-86
2022/10/28 07:12:32;;;;;;;51.30;30.80;;;12.80;1.00;;;;;;4938413;29;20202;-88
2022/10/28 07:14:59;;;;;;;58.13;34.67;;;12.80;1.00;;;;;;4938257;29;20621;-87
2022/10/28 07:17:27;;;;;;;63.17;37.93;;;12.90;1.00;;;;;;4938337;29;20209;-90
2022/10/28 07:27:06;;;;;;;46.93;28.07;;;13.20;1.00;;;;;;4939499;29;20282;-89
2022/10/28 07:29:33;;;;;;;46.10;27.70;;;13.30;1.00;;;;;;4937964;29;20210;-87
2022/10/28 07:32:01;;;;;;;48.70;30.00;;;13.30;1.00;;;;;;4937801;29;20207;-87
2022/10/28 07:37:46;;;;;;;40.13;26.40;;;13.40;1.00;;;;;;4938983;28;20213;-87
2022/10/28 07:40:14;;;;;;;40.60;25.50;;;13.50;1.00;;;;;;4936643;29;20604;-87
2022/10/28 07:42:42;;;;;;;41.40;27.63;;;13.60;1.00;;;;;;4937828;29;20208;-87
2022/10/28 07:45:09;;;;;;;39.67;27.50;;;13.70;1.00;;;;;;4937786;29;20271;-87
2022/10/28 07:47:36;;;;;;;34.90;23.77;;;13.70;1.00;;;;;;4941894;29;20204;-87
2022/10/28 07:50:04;;;;;;;33.87;23.77;;;13.70;1.00;;;;;;4937100;29;20263;-90
2022/10/28 07:52:32;;;;;;;37.23;24.20;;;13.80;1.00;;;;;;4937691;29;20215;-87
2022/10/28 07:54:59;;;;;;;36.90;23.67;;;13.90;1.00;;;;;;4937741;29;20220;-88
2022/10/28 07:57:26;;;;;;;32.83;23.13;;;13.90;1.00;;;;;;4937691;29;20595;-89
2022/10/28 07:59:54;;;;;;;37.30;24.60;;;14.00;1.00;;;;;;4937220;29;20256;-87
2022/10/28 08:02:24;;;;;;;35.00;24.13;;;14.10;1.00;;;;;;4937165;29;20201;-87
2022/10/28 08:04:51;;;;;;;37.83;26.93;;;14.20;1.00;;;;;;4937249;29;20283;-86
2022/10/28 08:07:19;;;;;;;30.08;22.70;;;14.40;1.00;;;;;;4937864;28;20607;-87
2022/10/28 08:09:46;;;;;;;29.25;22.60;;;14.70;1.00;;;;;;4937693;29;20199;-87
2022/10/28 08:12:14;;;;;;;28.45;22.10;;;14.90;99.90;;;;;;4937385;29;20274;-89
2022/10/28 08:14:41;;;;;;;28.75;21.98;;;15.40;99.90;;;;;;4937361;29;20278;-88
2022/10/28 08:17:10;;;;;;;27.33;21.38;;;15.70;1.00;;;;;;4937170;29;20199;-86
2022/10/28 08:19:38;;;;;;;25.10;18.95;;;16.00;99.90;;;;;;4937386;29;20202;-87
2022/10/28 08:22:05;;;;;;;24.73;19.58;;;16.20;99.90;;;;;;4936791;29;20568;-87
2022/10/28 08:24:32;;;;;;;24.17;18.30;;;16.30;1.00;;;;;;4937180;29;20208;-87
2022/10/28 08:26:59;;;;;;;24.83;18.50;;;16.30;99.90;;;;;;4936524;28;20625;-87
2022/10/28 08:32:44;;;;;;;21.35;16.60;;;16.60;99.90;;;;;;4936610;29;20196;-87
2022/10/28 08:35:11;;;;;;;18.50;15.48;;;16.80;1.00;;;;;;4936742;29;20229;-86
2022/10/28 08:37:38;;;;;;;19.88;15.43;;;17.00;1.00;;;;;;4936854;29;20200;-88
2022/10/28 08:40:06;;;;;;;20.58;15.88;;;17.10;99.90;;;;;;4936588;29;20248;-85
2022/10/28 08:42:40;;;;;;;17.98;15.63;;;17.20;1.00;;;;;;4936405;29;20248;-86
2022/10/28 08:45:22;;;;;;;21.30;16.40;;;17.20;99.90;;;;;;4936351;29;20770;-87
2022/10/28 08:48:04;;;;;;;25.95;20.27;;;17.20;1.00;;;;;;4936775;29;20236;-88
2022/10/28 08:50:32;;;;;;;20.48;15.30;;;17.20;99.90;;;;;;4936632;29;20189;-86
2022/10/28 08:53:03;;;;;;;17.27;14.27;;;17.10;99.90;;;;;;4936248;29;20197;-87
2022/10/28 08:55:35;;;;;;;16.95;13.93;;;17.00;1.00;;;;;;4936110;29;20341;-87
2022/10/28 08:58:08;;;;;;;16.88;13.85;;;17.00;1.00;;;;;;4936288;29;20755;-85
2022/10/28 09:00:36;;;;;;;18.98;15.38;;;17.00;99.90;;;;;;4936140;29;20708;-86
2022/10/28 09:03:21;;;;;;;17.88;14.57;;;17.10;1.00;;;;;;4936277;29;20254;-88
2022/10/28 09:05:53;;;;;;;18.20;14.93;;;17.10;1.00;;;;;;4936144;29;20248;-88
2022/10/28 09:08:23;;;;;;;22.67;15.15;;;17.20;1.00;;;;;;4936557;29;20197;-87
2022/10/28 09:11:20;;;;;;;20.13;16.00;;;17.20;99.90;;;;;;4936168;29;20181;-87
2022/10/28 09:14:07;;;;;;;17.63;15.05;;;17.20;1.00;;;;;;4927870;29;20207;-89
2022/10/28 09:16:43;;;;;;;18.58;14.65;;;17.30;60.40;;;;;;4936103;29;20209;-86
2022/10/28 09:19:21;;;;;;;18.75;13.98;;;17.30;1.00;;;;;;4935881;29;20188;-87
2022/10/28 09:21:52;;;;;;;21.17;15.38;;;17.20;1.00;;;;;;4935860;29;20542;-87
2022/10/28 09:24:21;;;;;;;21.55;16.05;;;17.20;1.00;;;;;;4943122;28;20190;-86
2022/10/28 09:26:55;;;;;;;20.00;13.50;;;17.10;1.00;;;;;;4936058;29;20203;-87
2022/10/28 09:29:41;;;;;;;21.85;13.88;;;17.10;1.00;;;;;;4936130;29;20189;-86
2022/10/28 09:32:17;;;;;;;17.58;13.20;;;17.10;1.00;;;;;;4935995;29;20184;-87
2022/10/28 09:34:49;;;;;;;19.98;14.68;;;17.10;1.00;;;;;;4936045;29;20236;-88
2022/10/28 09:37:21;;;;;;;20.70;15.00;;;17.00;1.00;;;;;;4935764;29;20699;-87
2022/10/28 09:39:50;;;;;;;21.23;13.32;;;17.10;1.00;;;;;;4935441;29;20522;-86
2022/10/28 09:42:22;;;;;;;16.30;13.13;;;17.20;99.90;;;;;;4935836;29;20209;-86
2022/10/28 09:44:53;;;;;;;18.45;13.13;;;17.30;99.90;;;;;;4935275;29;20190;-86
2022/10/28 09:47:23;;;;;;;17.55;12.57;;;17.50;99.90;;;;;;4935574;29;20194;-87
2022/10/28 09:49:55;;;;;;;15.80;14.07;;;17.60;99.90;;;;;;4935774;29;20192;-86
2022/10/28 09:52:27;;;;;;;17.23;14.02;;;17.70;1.00;;;;;;4935987;29;20189;-86
2022/10/28 09:54:55;;;;;;;16.10;12.88;;;17.80;1.00;;;;;;4935874;29;20240;-88
2022/10/28 09:57:24;;;;;;;20.63;12.27;;;17.90;1.00;;;;;;4935303;29;20255;-86
2022/10/28 09:59:52;;;;;;;16.55;11.70;;;18.00;1.00;;;;;;4935352;29;20252;-88
2022/10/28 10:02:28;;;;;;;14.50;12.95;;;18.10;1.00;;;;;;4935117;29;20634;-89
2022/10/28 10:04:57;;;;;;;39.47;28.98;;;18.20;99.90;;;;;;4935556;29;20244;-87
2022/10/28 10:07:37;;;;;;;26.90;18.60;;;18.30;99.90;;;;;;4935268;29;20248;-87
2022/10/28 10:10:12;;;;;;;18.63;15.27;;;18.40;99.90;;;;;;4935135;29;20240;-87
2022/10/28 10:12:39;;;;;;;29.90;22.67;;;18.40;55.00;;;;;;4934842;29;20195;-87
2022/10/28 10:15:11;;;;;;;19.05;16.73;;;18.50;82.30;;;;;;4934987;29;20624;-87
2022/10/28 10:17:42;;;;;;;25.52;18.83;;;18.60;1.00;;;;;;4935098;29;20194;-90
2022/10/28 10:20:13;;;;;;;17.77;15.80;;;18.70;1.00;;;;;;4934997;29;20181;-86
2022/10/28 10:22:41;;;;;;;17.45;14.43;;;18.70;1.00;;;;;;4935380;29;20288;-88
2022/10/28 10:25:28;;;;;;;21.38;14.15;;;18.80;1.00;;;;;;4935277;29;20196;-87
2022/10/28 10:27:59;;;;;;;16.52;12.95;;;18.90;1.00;;;;;;4935280;29;20189;-87
2022/10/28 10:30:29;;;;;;;17.23;12.13;;;19.00;1.00;;;;;;4935517;29;20193;-86
2022/10/28 10:32:57;;;;;;;16.23;12.40;;;19.00;1.00;;;;;;4935413;29;20182;-87
2022/10/28 10:35:28;;;;;;;16.48;12.77;;;19.00;1.00;;;;;;4934511;29;20268;-87
2022/10/28 10:37:57;;;;;;;17.92;12.23;;;19.10;1.00;;;;;;4935648;29;20205;-87
2022/10/28 10:40:29;;;;;;;16.23;12.13;;;19.30;99.90;;;;;;4935160;29;20625;-88
2022/10/28 10:43:13;;;;;;;16.33;11.57;;;19.40;99.90;;;;;;4935046;29;20585;-87
2022/10/28 10:45:41;;;;;;;12.63;10.80;;;19.50;99.90;;;;;;4935178;29;20185;-88
2022/10/28 10:48:13;;;;;;;14.25;9.45;;;19.70;99.90;;;;;;4934919;29;20205;-87
2022/10/28 10:50:45;;;;;;;10.98;8.77;;;19.80;99.90;;;;;;4934904;29;20221;-86
2022/10/28 10:53:22;;;;;;;12.55;8.45;;;19.90;99.90;;;;;;4935058;29;20189;-87
2022/10/28 10:55:52;;;;;;;14.90;9.38;;;19.70;99.90;;;;;;4934963;29;20268;-86
2022/10/28 10:58:21;;;;;;;12.23;8.55;;;19.50;99.90;;;;;;4934999;29;20252;-85
2022/10/28 11:00:51;;;;;;;11.80;9.15;;;19.30;99.90;;;;;;4934804;29;20205;-86
2022/10/28 11:03:23;;;;;;;13.85;10.43;;;19.00;99.90;;;;;;4934541;29;20656;-88
2022/10/28 11:05:55;;;;;;;9.77;8.02;;;18.80;99.90;;;;;;4935017;29;20253;-87
2022/10/28 11:08:37;;;;;;;11.85;8.10;;;18.60;99.90;;;;;;4934545;29;20591;-88
2022/10/28 11:11:18;;;;;;;13.10;10.05;;;18.50;99.90;;;;;;4934678;29;20272;-86
2022/10/28 11:13:46;;;;;;;13.25;8.77;;;18.30;99.90;;;;;;4934513;29;20662;-86
2022/10/28 11:16:21;;;;;;;12.23;9.82;;;18.30;99.90;;;;;;4934388;29;20296;-86
2022/10/28 11:18:50;;;;;;;14.05;9.88;;;18.20;99.90;;;;;;4934701;29;20188;-86
2022/10/28 11:21:50;;;;;;;11.45;8.63;;;18.20;1.00;;;;;;4934702;29;20200;-85
2022/10/28 11:24:34;;;;;;;15.05;11.85;;;18.20;1.00;;;;;;4936904;29;20236;-86
2022/10/28 11:27:11;;;;;;;14.85;11.52;;;18.20;1.00;;;;;;4938390;29;20244;-85
2022/10/28 11:29:38;;;;;;;14.98;8.68;;;18.30;1.00;;;;;;4937740;29;20193;-86
2022/10/28 11:32:18;;;;;;;13.57;7.88;;;18.40;1.00;;;;;;4938123;29;20201;-86
2022/10/28 11:35:03;;;;;;;16.27;9.95;;;18.40;99.90;;;;;;4937528;29;20315;-86
2022/10/28 11:37:46;;;;;;;13.23;8.38;;;18.30;99.90;;;;;;4937917;29;20637;-86
2022/10/28 11:40:29;;;;;;;10.93;8.18;;;18.30;1.00;;;;;;4937941;29;20240;-86
2022/10/28 11:43:07;;;;;;;15.93;12.88;;;18.30;1.00;;;;;;4938013;29;20196;-86
2022/10/28 11:45:42;;;;;;;10.75;8.45;;;18.40;99.90;;;;;;4938067;29;20298;-87
2022/10/28 11:48:22;;;;;;;18.40;10.30;;;18.40;99.90;;;;;;4937971;29;20252;-86
2022/10/28 11:51:04;;;;;;;12.63;8.77;;;18.30;99.90;;;;;;4937896;28;20607;-88
2022/10/28 11:54:05;;;;;;;13.43;8.43;;;18.20;99.90;;;;;;4937710;29;20190;-86
2022/10/28 11:56:37;;;;;;;12.05;8.05;;;18.10;99.90;;;;;;4937771;29;20280;-86
2022/10/28 11:59:30;;;;;;;10.68;7.22;;;18.10;1.00;;;;;;4947090;29;20189;-85
2022/10/28 12:02:07;;;;;;;10.10;7.18;;;18.20;1.00;;;;;;4937128;29;20193;-88
2022/10/28 12:04:49;;;;;;;13.05;7.40;;;18.20;1.00;;;;;;4937697;29;20268;-84
2022/10/28 12:07:35;;;;;;;11.68;7.70;;;18.40;1.00;;;;;;4937383;29;20244;-85
2022/10/28 12:10:24;;;;;;;17.58;8.20;;;18.40;1.00;;;;;;4937564;29;20203;-87
2022/10/28 12:12:58;;;;;;;12.85;7.78;;;18.30;1.00;;;;;;4936917;29;20636;-85
2022/10/28 12:15:39;;;;;;;32.70;9.45;;;18.30;1.00;;;;;;4936849;29;20185;-84
2022/10/28 12:18:13;;;;;;;15.35;8.52;;;18.40;1.00;;;;;;4937087;29;20213;-86
2022/10/28 12:20:46;;;;;;;13.45;8.05;;;18.60;1.00;;;;;;4937235;29;20186;-85
2022/10/28 12:23:16;;;;;;;17.08;7.93;;;18.80;1.00;;;;;;4937320;29;20186;-85
2022/10/28 12:25:48;;;;;;;18.27;8.05;;;19.10;99.90;;;;;;4936900;29;20197;-84
2022/10/28 12:28:21;;;;;;;11.82;7.55;;;19.30;99.90;;;;;;4936972;29;20193;-86
2022/10/28 12:30:51;;;;;;;16.20;7.55;;;19.50;99.90;;;;;;4936969;29;20185;-84
2022/10/28 12:33:22;;;;;;;13.63;8.05;;;19.70;99.90;;;;;;4936885;29;20251;-85
2022/10/28 12:35:55;;;;;;;13.32;7.55;;;19.80;99.90;;;;;;4936355;29;20243;-84
2022/10/28 12:38:27;;;;;;;10.00;7.03;;;19.80;99.90;;;;;;4936512;29;20284;-85
2022/10/28 12:41:03;;;;;;;10.65;7.18;;;19.80;99.90;;;;;;4936843;29;20273;-85
2022/10/28 12:43:38;;;;;;;10.02;8.23;;;19.80;99.90;;;;;;4936784;29;20261;-85
2022/10/28 12:46:10;;;;;;;15.55;7.90;;;19.80;99.90;;;;;;4936531;29;20239;-84
2022/10/28 12:48:44;;;;;;;15.70;7.65;;;19.80;99.90;;;;;;4936730;29;20177;-84
2022/10/28 12:51:16;;;;;;;14.43;7.75;;;19.80;99.90;;;;;;4936168;29;20184;-85
2022/10/28 12:53:53;;;;;;;14.32;8.00;;;19.80;99.90;;;;;;4936555;29;20244;-83
2022/10/28 12:56:28;;;;;;;16.55;8.10;;;19.80;99.90;;;;;;4936232;29;20272;-84
2022/10/28 12:59:01;;;;;;;17.98;8.07;;;19.80;99.90;;;;;;4936074;29;20329;-86
2022/10/28 13:01:30;;;;;;;23.88;8.98;;;19.90;99.90;;;;;;4936348;29;20272;-85
2022/10/28 13:03:58;;;;;;;16.45;8.88;;;19.90;99.90;;;;;;4935938;29;20686;-84
2022/10/28 13:06:47;;;;;;;15.75;8.77;;;20.00;99.90;;;;;;4936218;29;20200;-86
2022/10/28 13:09:41;;;;;;;15.32;9.52;;;19.90;99.90;;;;;;4936485;29;20189;-85
2022/10/28 13:12:45;;;;;;;22.48;11.05;;;19.90;99.90;;;;;;4936504;29;20201;-84